Time;durP1;ratioP1;P1;durP2;ratioP2;P2;SDS_P1;SDS_P2;PMS_P1;PMS_P2;Temp;Humidity;BMP_temperature;BMP_pressure;BME280_temperature;BME280_humidity;BME280_pressure;Samples;Min_cycle;Max_cycle;Signal;HPM_P1;HPM_P2
2021/01/08 20:03:40;;;;;;;5.13;3.40;;;;;;;;;;5103057;27;20367;-73
2021/01/08 20:06:06;;;;;;;5.28;3.58;;;;;;;;;;5106736;28;20085;-77
2021/01/08 20:08:32;;;;;;;5.53;3.58;;;;;;;;;;5105143;28;20103;-72
2021/01/08 20:10:58;;;;;;;4.95;3.60;;;;;;;;;;5108199;28;20051;-69
2021/01/08 20:13:25;;;;;;;7.97;4.05;;;;;;;;;;5104017;28;20027;-69
2021/01/08 20:15:51;;;;;;;5.65;3.65;;;;;;;;;;5105444;28;20107;-64
2021/01/08 20:18:20;;;;;;;6.38;4.22;;;;;;;;;;5106299;28;20059;-63
2021/01/08 20:20:46;;;;;;;7.88;4.13;;;;;;;;;;5105891;28;20027;-63
2021/01/08 20:23:12;;;;;;;5.95;3.40;;;;;;;;;;5106337;28;20028;-63
2021/01/08 20:25:38;;;;;;;5.90;3.97;;;;;;;;;;5107785;28;20081;-63
2021/01/08 20:28:13;;;;;;;7.97;3.78;;;;;;;;;;5107860;28;20016;-64
2021/01/08 20:30:40;;;;;;;6.95;4.18;;;;;;;;;;5108424;28;20020;-63
2021/01/08 20:33:07;;;;;;;6.53;4.30;;;;;;;;;;5108774;28;20035;-64
2021/01/08 20:35:33;;;;;;;8.25;4.45;;;;;;;;;;5107175;28;20027;-63
2021/01/08 20:37:59;;;;;;;6.60;4.10;;;;;;;;;;5104102;28;20020;-63
2021/01/08 20:40:25;;;;;;;5.22;3.85;;;;;;;;;;5106523;28;20023;-63
2021/01/08 20:42:51;;;;;;;8.93;4.25;;;;;;;;;;5106421;28;20131;-63
2021/01/08 20:45:18;;;;;;;6.63;4.15;;;;;;;;;;5108078;28;20031;-66
2021/01/08 20:47:45;;;;;;;7.35;4.40;;;;;;;;;;5106884;28;20028;-67
2021/01/08 20:50:12;;;;;;;6.45;3.95;;;;;;;;;;5107395;28;20119;-65
2021/01/08 20:52:44;;;;;;;6.40;4.47;;;;;;;;;;5106734;28;20410;-64
2021/01/08 20:55:12;;;;;;;7.75;4.65;;;;;;;;;;5107605;28;20027;-65
2021/01/08 20:57:46;;;;;;;8.05;4.28;;;;;;;;;;5107226;28;20023;-66
2021/01/08 21:00:12;;;;;;;7.00;4.75;;;;;;;;;;5105580;28;20042;-66
2021/01/08 21:02:38;;;;;;;7.32;4.60;;;;;;;;;;5107566;28;20495;-65
2021/01/08 21:05:04;;;;;;;5.80;4.28;;;;;;;;;;5106786;28;20030;-66
2021/01/08 21:07:30;;;;;;;6.63;4.20;;;;;;;;;;5107477;28;20019;-67
2021/01/08 21:09:56;;;;;;;9.25;4.70;;;;;;;;;;5107561;28;20128;-67
2021/01/08 21:12:22;;;;;;;7.10;4.38;;;;;;;;;;5107351;28;20433;-68
2021/01/08 21:14:48;;;;;;;7.43;4.70;;;;;;;;;;5094276;28;20020;-68
2021/01/08 21:17:14;;;;;;;6.95;4.93;;;;;;;;;;5093756;28;20028;-66
2021/01/08 21:19:40;;;;;;;7.85;4.80;;;;;;;;;;5094029;28;20144;-67
2021/01/08 21:22:06;;;;;;;7.10;4.35;;;;;;;;;;5087334;28;20040;-67
2021/01/08 21:24:32;;;;;;;6.53;4.43;;;;;;;;;;5093285;28;20023;-67
2021/01/08 21:26:58;;;;;;;9.00;5.13;;;;;;;;;;5093771;28;20024;-67
2021/01/08 21:29:24;;;;;;;6.55;4.55;;;;;;;;;;5093320;28;20495;-66
2021/01/08 21:31:53;;;;;;;6.82;4.55;;;;;;;;;;5092835;28;20032;-65
2021/01/08 21:34:20;;;;;;;7.07;3.90;;;;;;;;;;5092947;28;20024;-64
2021/01/08 21:36:46;;;;;;;12.07;4.95;;;;;;;;;;5093770;28;20024;-67
2021/01/08 21:39:12;;;;;;;11.13;5.03;;;;;;;;;;5092550;28;20468;-64
2021/01/08 21:41:42;;;;;;;15.40;4.75;;;;;;;;;;5093184;28;20028;-65
2021/01/08 21:44:09;;;;;;;19.08;4.50;;;;;;;;;;5093100;28;20024;-63
2021/01/08 21:46:36;;;;;;;11.38;4.45;;;;;;;;;;5092766;28;20028;-65
2021/01/08 21:49:02;;;;;;;11.15;4.80;;;;;;;;;;5092356;28;20099;-66
2021/01/08 21:51:28;;;;;;;11.43;4.32;;;;;;;;;;5092795;28;20101;-65
2021/01/08 21:53:54;;;;;;;10.85;4.50;;;;;;;;;;5093214;28;20055;-65
2021/01/08 21:56:29;;;;;;;14.05;4.78;;;;;;;;;;5092745;28;20025;-65
2021/01/08 21:58:55;;;;;;;8.77;4.10;;;;;;;;;;5092320;28;20024;-65
2021/01/08 22:01:21;;;;;;;13.82;5.03;;;;;;;;;;5091296;28;20020;-67
2021/01/08 22:03:47;;;;;;;7.55;3.88;;;;;;;;;;5092163;28;20107;-65
2021/01/08 22:06:13;;;;;;;9.50;3.97;;;;;;;;;;5091939;28;20024;-65
2021/01/08 22:08:39;;;;;;;8.35;4.15;;;;;;;;;;5092638;28;20024;-64
2021/01/08 22:11:05;;;;;;;15.93;4.80;;;;;;;;;;5093410;28;20107;-64
2021/01/08 22:13:30;;;;;;;12.68;4.13;;;;;;;;;;5092274;28;20024;-65
2021/01/08 22:15:57;;;;;;;8.48;4.18;;;;;;;;;;5092587;28;20939;-65
2021/01/08 22:18:23;;;;;;;10.20;3.85;;;;;;;;;;5092601;28;20020;-64
2021/01/08 22:20:49;;;;;;;11.00;3.88;;;;;;;;;;5092448;28;20043;-64
2021/01/08 22:23:14;;;;;;;12.98;4.55;;;;;;;;;;5092270;28;20047;-65
2021/01/08 22:25:40;;;;;;;9.65;4.30;;;;;;;;;;5091424;28;20028;-65
2021/01/08 22:28:06;;;;;;;10.18;3.80;;;;;;;;;;5093049;28;20024;-65
2021/01/08 22:30:32;;;;;;;9.25;3.55;;;;;;;;;;5091093;28;20056;-65
2021/01/08 22:32:58;;;;;;;8.30;4.15;;;;;;;;;;5091862;28;20056;-64
2021/01/08 22:35:24;;;;;;;6.05;3.65;;;;;;;;;;5092063;28;20027;-63
2021/01/08 22:37:50;;;;;;;8.63;3.67;;;;;;;;;;5091726;28;20024;-64
2021/01/08 22:40:16;;;;;;;8.85;4.15;;;;;;;;;;5092091;28;20024;-63
2021/01/08 22:42:42;;;;;;;6.43;3.90;;;;;;;;;;5091348;28;20032;-64
2021/01/08 22:45:09;;;;;;;7.95;3.97;;;;;;;;;;5091767;28;20028;-64
2021/01/08 22:47:35;;;;;;;12.07;3.67;;;;;;;;;;5092138;28;20032;-64
2021/01/08 22:50:01;;;;;;;10.32;4.55;;;;;;;;;;5091877;28;20055;-64
2021/01/08 22:52:27;;;;;;;7.25;4.15;;;;;;;;;;5091348;28;20036;-66
2021/01/08 22:54:53;;;;;;;6.72;3.72;;;;;;;;;;5092013;28;20035;-64
2021/01/08 22:57:19;;;;;;;7.28;3.78;;;;;;;;;;5091370;28;20024;-64
2021/01/08 22:59:45;;;;;;;8.80;3.67;;;;;;;;;;5091260;28;20047;-65
2021/01/08 23:02:11;;;;;;;7.40;3.78;;;;;;;;;;5090778;28;20093;-65
2021/01/08 23:04:37;;;;;;;7.00;3.85;;;;;;;;;;5091419;28;20031;-65
2021/01/08 23:07:03;;;;;;;9.93;3.35;;;;;;;;;;5091169;28;20028;-65
2021/01/08 23:09:29;;;;;;;6.05;3.60;;;;;;;;;;5091119;28;20024;-65
2021/01/08 23:11:59;;;;;;;6.85;4.68;;;;;;;;;;5091717;28;20438;-65
2021/01/08 23:14:25;;;;;;;6.68;3.83;;;;;;;;;;5091231;28;20436;-65
2021/01/08 23:16:51;;;;;;;5.97;3.83;;;;;;;;;;5091737;28;20031;-65
2021/01/08 23:19:17;;;;;;;6.82;4.50;;;;;;;;;;5089594;28;20024;-65
2021/01/08 23:21:43;;;;;;;6.30;3.47;;;;;;;;;;5091517;28;20052;-65
2021/01/08 23:24:09;;;;;;;9.30;4.35;;;;;;;;;;5091135;28;20063;-65
2021/01/08 23:26:35;;;;;;;7.38;3.75;;;;;;;;;;5091221;28;20061;-65
2021/01/08 23:29:01;;;;;;;8.02;4.15;;;;;;;;;;5091638;28;20433;-65
2021/01/08 23:31:27;;;;;;;7.18;3.80;;;;;;;;;;5090833;28;20031;-65
2021/01/08 23:33:56;;;;;;;6.07;3.70;;;;;;;;;;5091589;28;20032;-64
2021/01/08 23:36:23;;;;;;;5.03;3.60;;;;;;;;;;5090222;28;20020;-65
2021/01/08 23:38:49;;;;;;;7.07;3.97;;;;;;;;;;5091517;28;20039;-65
2021/01/08 23:41:19;;;;;;;5.97;3.85;;;;;;;;;;5090238;28;20020;-64
2021/01/08 23:43:45;;;;;;;6.35;3.58;;;;;;;;;;5089946;28;20469;-65
2021/01/08 23:46:11;;;;;;;6.35;3.80;;;;;;;;;;5090753;28;20383;-64
2021/01/08 23:48:37;;;;;;;5.72;3.60;;;;;;;;;;5091180;28;20488;-64
2021/01/08 23:51:04;;;;;;;7.55;3.95;;;;;;;;;;5091663;28;20434;-64
2021/01/08 23:53:30;;;;;;;6.35;3.92;;;;;;;;;;5090397;28;20476;-67
2021/01/08 23:55:56;;;;;;;7.22;3.90;;;;;;;;;;5090648;28;20036;-67
2021/01/08 23:58:22;;;;;;;5.22;3.90;;;;;;;;;;5090976;28;20034;-67
